Angier, North Carolina
Current Conditions -  °F | °C
As of 6:55 AM on Monday 24 Nov 2014 (Local Time) from KHRJ Reporting Station
Clear Clear  
Wind Chill: 60°   Ceiling: Unl
Heat Index: 60°   Visibility: 7mi
Dew Point: 60°   Wind: 7mph
Humidity: 100%   Direction: 190°S
Pressure: 29.83"   Gusts: NA
Location:  35.51°N, 78.74°W
Report Text: KHRJ 241155Z AUTO 19006KT 7SM CLR 16/16 A2983 RMK AO2 60001 70080 T01560156 10187 20155
Loading
Personal Weather Stations






























Interactive Weather Map New forecast layout! Learn more

10-Day Weather Forecast

Advertisements
Track Severe Weather on mobile